Time;durP1;ratioP1;P1;durP2;ratioP2;P2;SDS_P1;SDS_P2;PMS_P1;PMS_P2;Temp;Humidity;BMP_temperature;BMP_pressure;BME280_temperature;BME280_humidity;BME280_pressure;Samples;Min_cycle;Max_cycle;Signal;HPM_P1;HPM_P2
2022/09/11 00:00:30;;;;;;;3.65;2.28;;;23.20;67.40;;;;;;6124841;28;83175;-60
2022/09/11 00:03:31;;;;;;;5.03;2.40;;;23.20;67.40;;;;;;6124144;28;81488;-60
2022/09/11 00:06:31;;;;;;;4.90;2.50;;;23.20;67.40;;;;;;6106545;28;80152;-61
2022/09/11 00:09:32;;;;;;;8.00;2.88;;;23.20;67.40;;;;;;6126476;28;81431;-63
2022/09/11 00:12:32;;;;;;;7.38;2.05;;;23.20;67.40;;;;;;6125789;28;81050;-64
2022/09/11 00:15:32;;;;;;;3.55;2.20;;;23.20;67.40;;;;;;6117702;28;80416;-65
2022/09/11 00:18:36;;;;;;;2.60;1.95;;;23.20;67.40;;;;;;6117895;28;81023;-64
2022/09/11 00:21:36;;;;;;;3.55;2.33;;;23.20;67.30;;;;;;6116323;28;80534;-64
2022/09/11 00:24:37;;;;;;;11.90;2.53;;;23.20;67.40;;;;;;6119643;28;85387;-66
2022/09/11 00:27:37;;;;;;;3.88;2.10;;;23.20;67.40;;;;;;6113623;28;80343;-65
2022/09/11 00:30:38;;;;;;;6.07;2.55;;;23.10;67.40;;;;;;6107083;28;80916;-65
2022/09/11 00:33:38;;;;;;;3.95;2.10;;;23.20;67.40;;;;;;6125960;28;81812;-65
2022/09/11 00:36:40;;;;;;;4.13;2.17;;;23.20;67.40;;;;;;6124898;28;80753;-64
2022/09/11 00:39:41;;;;;;;3.75;1.70;;;23.20;67.40;;;;;;6139923;28;85039;-63
2022/09/11 00:42:42;;;;;;;3.28;2.08;;;23.20;67.30;;;;;;6142918;28;80163;-64
2022/09/11 00:45:42;;;;;;;4.20;2.03;;;23.20;67.50;;;;;;6133679;28;81696;-61
2022/09/11 00:48:43;;;;;;;2.25;1.75;;;23.20;67.40;;;;;;6128184;28;86538;-60
2022/09/11 00:51:43;;;;;;;4.53;2.45;;;23.20;67.40;;;;;;6141532;28;81593;-60
2022/09/11 00:54:45;;;;;;;4.75;2.35;;;23.10;67.30;;;;;;6142675;28;83312;-59
2022/09/11 00:57:45;;;;;;;4.95;2.20;;;23.10;67.40;;;;;;6134021;28;82092;-60
2022/09/11 01:00:46;;;;;;;4.47;1.92;;;23.10;67.40;;;;;;6142523;28;80451;-61
2022/09/11 01:03:47;;;;;;;4.55;2.00;;;23.10;67.40;;;;;;6154415;28;80231;-59
2022/09/11 01:06:48;;;;;;;5.03;1.77;;;23.10;67.40;;;;;;6146206;28;83842;-60
2022/09/11 01:09:50;;;;;;;3.60;2.42;;;23.10;67.50;;;;;;6152824;28;81146;-61
2022/09/11 01:12:50;;;;;;;2.13;1.58;;;23.10;67.40;;;;;;6146834;28;83085;-60
2022/09/11 01:15:52;;;;;;;4.97;2.10;;;23.10;67.40;;;;;;6136502;28;83027;-60
2022/09/11 01:18:53;;;;;;;5.60;2.08;;;23.10;67.40;;;;;;6130881;28;81612;-60
2022/09/11 01:21:53;;;;;;;4.60;2.47;;;23.10;67.50;;;;;;6143820;28;81307;-60
2022/09/11 01:24:55;;;;;;;2.97;1.98;;;23.10;67.40;;;;;;6145725;28;81875;-59
2022/09/11 01:27:56;;;;;;;11.13;2.50;;;23.10;67.50;;;;;;6148376;28;82869;-59
2022/09/11 01:30:56;;;;;;;3.67;1.92;;;23.10;67.40;;;;;;6128952;28;81532;-60
2022/09/11 01:33:58;;;;;;;4.45;2.47;;;23.10;67.40;;;;;;6154680;28;82709;-60
2022/09/11 01:36:58;;;;;;;2.88;2.10;;;23.10;67.50;;;;;;6159523;28;83215;-59
2022/09/11 01:39:59;;;;;;;3.70;2.20;;;23.10;67.50;;;;;;6138546;28;81264;-59
2022/09/11 01:42:59;;;;;;;2.95;2.00;;;23.10;67.40;;;;;;6125950;28;84012;-59
2022/09/11 01:46:00;;;;;;;3.35;2.00;;;23.10;67.50;;;;;;6123407;28;81339;-60
2022/09/11 01:49:01;;;;;;;4.60;1.98;;;23.10;67.50;;;;;;6156413;28;83255;-59
2022/09/11 01:52:02;;;;;;;3.35;1.95;;;23.10;67.50;;;;;;6142552;28;82979;-60
2022/09/11 01:55:02;;;;;;;3.47;2.00;;;23.10;67.60;;;;;;6137733;28;87851;-60
2022/09/11 01:58:05;;;;;;;2.50;1.92;;;23.10;67.70;;;;;;6131974;28;85838;-60
2022/09/11 02:01:06;;;;;;;4.13;2.15;;;23.10;67.70;;;;;;6149703;28;82771;-59
2022/09/11 02:04:09;;;;;;;1.70;1.60;;;23.10;67.80;;;;;;6132361;28;82858;-61
2022/09/11 02:07:10;;;;;;;2.70;1.80;;;23.10;67.90;;;;;;6146803;28;83142;-60
2022/09/11 02:10:13;;;;;;;3.47;1.70;;;23.10;67.90;;;;;;6124575;28;82694;-60
2022/09/11 02:13:13;;;;;;;3.40;2.05;;;23.10;67.90;;;;;;6122057;28;80530;-60
2022/09/11 02:16:14;;;;;;;3.22;2.03;;;23.10;67.90;;;;;;6141277;28;82517;-60
2022/09/11 02:19:15;;;;;;;4.82;1.83;;;23.10;68.00;;;;;;6154035;28;81115;-60
2022/09/11 02:22:15;;;;;;;2.25;1.70;;;23.10;68.00;;;;;;6135028;28;83673;-59
2022/09/11 02:25:16;;;;;;;3.92;2.30;;;23.10;68.10;;;;;;6137744;28;83856;-59
2022/09/11 02:28:18;;;;;;;3.28;2.10;;;23.10;68.10;;;;;;6139399;28;83038;-61
2022/09/11 02:31:19;;;;;;;2.30;1.70;;;23.10;68.00;;;;;;6132089;28;83640;-60
2022/09/11 02:34:20;;;;;;;4.47;1.90;;;23.10;68.10;;;;;;6131834;28;83527;-60
2022/09/11 02:37:21;;;;;;;3.78;2.10;;;23.10;68.20;;;;;;6123038;28;82709;-59
2022/09/11 02:40:23;;;;;;;2.75;1.85;;;23.10;68.10;;;;;;6112271;28;83923;-61
2022/09/11 02:43:23;;;;;;;2.08;1.50;;;23.10;68.10;;;;;;6111781;28;80236;-60
2022/09/11 02:46:24;;;;;;;2.63;1.70;;;23.10;68.00;;;;;;6121089;28;81398;-59
2022/09/11 02:49:25;;;;;;;2.75;1.60;;;23.10;67.90;;;;;;6120188;28;80237;-59
2022/09/11 02:52:26;;;;;;;3.20;2.03;;;23.10;68.00;;;;;;6135536;28;83104;-60
2022/09/11 02:55:27;;;;;;;4.63;2.20;;;23.10;67.90;;;;;;6127928;28;82402;-60
2022/09/11 02:58:28;;;;;;;5.07;1.67;;;23.10;67.90;;;;;;6112538;28;80629;-60
2022/09/11 03:01:30;;;;;;;2.28;1.80;;;23.10;67.80;;;;;;6125298;28;83273;-60
2022/09/11 03:04:34;;;;;;;2.22;1.70;;;23.10;67.90;;;;;;6138345;28;83273;-60
2022/09/11 03:07:35;;;;;;;4.82;2.15;;;23.10;67.80;;;;;;6148908;28;81614;-60
2022/09/11 03:10:37;;;;;;;3.40;1.85;;;23.10;67.80;;;;;;6164171;28;82564;-60
2022/09/11 03:13:42;;;;;;;3.72;1.90;;;23.10;67.80;;;;;;6153321;28;83134;-60
2022/09/11 03:16:43;;;;;;;2.92;2.10;;;23.10;67.90;;;;;;6157553;28;82327;-60
2022/09/11 03:19:45;;;;;;;2.25;1.90;;;23.00;67.90;;;;;;6151009;28;81230;-60
2022/09/11 03:22:45;;;;;;;3.30;1.90;;;23.10;67.90;;;;;;6167766;28;83287;-60
2022/09/11 03:25:46;;;;;;;2.00;1.63;;;23.10;67.90;;;;;;6165768;28;82724;-60
2022/09/11 03:28:46;;;;;;;2.38;1.50;;;23.10;68.00;;;;;;6147559;28;81752;-59
2022/09/11 03:31:49;;;;;;;5.63;1.73;;;23.10;67.90;;;;;;6128894;28;83464;-63
2022/09/11 03:34:51;;;;;;;5.32;2.40;;;23.10;68.00;;;;;;6138126;28;83240;-63
2022/09/11 03:37:51;;;;;;;5.60;1.75;;;23.10;68.00;;;;;;6148219;28;81525;-62
2022/09/11 03:40:53;;;;;;;2.33;1.88;;;23.00;68.00;;;;;;6136104;28;83322;-62
2022/09/11 03:43:54;;;;;;;3.45;1.95;;;23.00;68.00;;;;;;6138633;28;80886;-62
2022/09/11 03:46:56;;;;;;;4.03;1.65;;;23.10;68.20;;;;;;6146240;28;80453;-62
2022/09/11 03:49:56;;;;;;;4.80;1.75;;;23.10;68.20;;;;;;6133147;28;82802;-61
2022/09/11 03:52:57;;;;;;;4.35;1.92;;;23.10;68.10;;;;;;6134305;28;82804;-62
2022/09/11 03:55:59;;;;;;;3.13;1.90;;;23.20;68.00;;;;;;6146622;28;80901;-61
2022/09/11 03:59:02;;;;;;;2.10;1.65;;;23.10;68.00;;;;;;6130615;28;83362;-61
2022/09/11 04:02:04;;;;;;;3.65;2.28;;;23.20;67.80;;;;;;6139674;28;82666;-62
2022/09/11 04:05:05;;;;;;;2.95;1.85;;;23.20;67.90;;;;;;6142319;28;83242;-62
2022/09/11 04:08:05;;;;;;;1.90;1.50;;;23.20;68.00;;;;;;6138817;28;83218;-64
2022/09/11 04:11:07;;;;;;;2.72;1.73;;;23.20;68.00;;;;;;6140277;28;82949;-64
2022/09/11 04:14:10;;;;;;;1.75;1.50;;;23.20;68.10;;;;;;6156978;28;83344;-64
2022/09/11 04:17:12;;;;;;;2.17;1.45;;;23.20;67.90;;;;;;6125795;28;81887;-64
2022/09/11 04:20:13;;;;;;;2.08;1.52;;;23.20;67.90;;;;;;6143173;28;82499;-63
2022/09/11 04:23:13;;;;;;;2.15;1.58;;;23.20;67.80;;;;;;6123966;28;83581;-61
2022/09/11 04:26:16;;;;;;;1.98;1.65;;;23.20;68.40;;;;;;6143625;28;81771;-62
2022/09/11 04:29:21;;;;;;;2.13;1.42;;;23.30;67.90;;;;;;6137524;28;85063;-63
2022/09/11 04:32:22;;;;;;;2.65;1.70;;;23.30;67.90;;;;;;6124331;28;83046;-63
2022/09/11 04:35:23;;;;;;;1.90;1.60;;;23.30;68.00;;;;;;6123609;28;86999;-62
2022/09/11 04:38:29;;;;;;;3.13;1.83;;;23.30;68.00;;;;;;6142228;28;83904;-61
2022/09/11 04:41:29;;;;;;;2.78;1.67;;;23.30;67.70;;;;;;6128140;28;80167;-62
2022/09/11 04:44:33;;;;;;;2.45;1.50;;;23.30;67.50;;;;;;6139786;28;83307;-55
2022/09/11 04:47:34;;;;;;;2.13;1.50;;;23.40;67.70;;;;;;6131687;28;81141;-58
2022/09/11 04:50:35;;;;;;;4.47;1.70;;;23.30;67.80;;;;;;6124189;28;82306;-58
2022/09/11 04:53:51;;;;;;;1.70;1.30;;;23.30;67.90;;;;;;6155244;28;84299;-60
2022/09/11 04:56:53;;;;;;;3.03;1.77;;;23.40;68.00;;;;;;6146986;28;83191;-56
2022/09/11 04:59:54;;;;;;;2.40;1.88;;;23.40;68.30;;;;;;6135639;28;80808;-58
2022/09/11 05:02:55;;;;;;;1.60;1.48;;;23.40;68.40;;;;;;6146545;28;82361;-61
2022/09/11 05:05:56;;;;;;;2.92;1.50;;;23.40;68.10;;;;;;6163981;28;84317;-64
2022/09/11 05:08:56;;;;;;;1.58;1.40;;;23.40;68.20;;;;;;6151645;28;83652;-61
2022/09/11 05:11:57;;;;;;;1.95;1.58;;;23.40;68.20;;;;;;6133744;28;85265;-63
2022/09/11 05:15:01;;;;;;;3.58;1.98;;;23.40;68.50;;;;;;6135438;28;83009;-73
2022/09/11 05:18:05;;;;;;;3.50;1.58;;;23.40;69.10;;;;;;6136100;28;82809;-73
2022/09/11 05:21:06;;;;;;;2.85;1.83;;;23.40;69.20;;;;;;6098068;28;89527;-60
2022/09/11 05:24:07;;;;;;;2.47;1.30;;;23.40;69.10;;;;;;6102386;28;82023;-63
2022/09/11 05:27:08;;;;;;;5.53;2.05;;;23.50;69.30;;;;;;6106932;28;83649;-57
2022/09/11 05:30:09;;;;;;;2.65;1.23;;;23.50;69.30;;;;;;6112218;28;83286;-59
2022/09/11 05:33:11;;;;;;;4.13;1.30;;;23.40;69.60;;;;;;6101819;28;80900;-54
2022/09/11 05:36:12;;;;;;;2.83;1.65;;;23.40;69.70;;;;;;6132660;28;83229;-59
2022/09/11 05:39:13;;;;;;;4.75;1.30;;;23.50;69.70;;;;;;6101455;28;83378;-63
2022/09/11 05:42:14;;;;;;;2.75;1.40;;;23.50;69.70;;;;;;6129728;28;80545;-59
2022/09/11 05:45:17;;;;;;;3.92;1.58;;;23.50;69.70;;;;;;6114770;28;83663;-64
2022/09/11 05:48:18;;;;;;;3.08;1.40;;;23.50;69.70;;;;;;6112922;28;83403;-59
2022/09/11 05:51:21;;;;;;;2.83;1.42;;;23.50;69.60;;;;;;6112966;28;82839;-64
2022/09/11 05:54:23;;;;;;;1.77;1.50;;;23.50;69.60;;;;;;6117004;28;83936;-61
2022/09/11 05:57:23;;;;;;;3.80;2.22;;;23.50;69.20;;;;;;6117620;28;80303;-62
2022/09/11 06:00:24;;;;;;;2.42;1.70;;;23.40;68.80;;;;;;6121765;28;83149;-63
2022/09/11 06:03:25;;;;;;;4.53;2.00;;;23.40;68.60;;;;;;6110292;28;85382;-63
2022/09/11 06:06:28;;;;;;;5.13;1.77;;;23.40;68.30;;;;;;6117674;28;83584;-63
2022/09/11 06:09:28;;;;;;;2.22;1.83;;;23.30;67.90;;;;;;6119553;28;83190;-62
2022/09/11 06:12:30;;;;;;;4.47;2.40;;;23.20;67.50;;;;;;6106668;28;81400;-63
2022/09/11 06:15:31;;;;;;;3.45;2.38;;;23.20;67.50;;;;;;6119106;28;82950;-61
2022/09/11 06:18:32;;;;;;;3.42;2.40;;;23.20;67.50;;;;;;6115621;28;83114;-63
2022/09/11 06:21:32;;;;;;;3.13;2.42;;;23.20;67.40;;;;;;6118804;28;81515;-62
2022/09/11 06:24:48;;;;;;;4.35;2.78;;;23.20;67.10;;;;;;6107943;28;83026;-62
2022/09/11 06:27:49;;;;;;;18.75;8.68;;;23.20;67.00;;;;;;6108706;28;83008;-64
2022/09/11 06:30:50;;;;;;;15.23;7.47;;;23.20;67.30;;;;;;6084099;28;81413;-63
2022/09/11 06:33:51;;;;;;;15.73;7.35;;;23.20;67.30;;;;;;6114336;28;82633;-63
2022/09/11 06:36:51;;;;;;;15.88;8.18;;;23.20;67.40;;;;;;6101147;28;83333;-62
2022/09/11 06:39:52;;;;;;;20.67;9.55;;;23.20;67.30;;;;;;6114009;28;81455;-61
2022/09/11 06:42:59;;;;;;;14.82;6.82;;;23.20;67.40;;;;;;6107054;28;83443;-61
2022/09/11 06:46:00;;;;;;;10.90;6.45;;;23.20;67.30;;;;;;6114012;28;82276;-61
2022/09/11 06:49:01;;;;;;;20.23;6.63;;;23.10;66.90;;;;;;6114859;28;83605;-62
2022/09/11 06:52:03;;;;;;;11.63;7.32;;;23.10;67.10;;;;;;6117561;28;82988;-62
2022/09/11 06:55:04;;;;;;;14.18;7.47;;;23.20;67.00;;;;;;6166836;28;87281;-59
2022/09/11 06:58:05;;;;;;;10.93;7.45;;;23.20;67.00;;;;;;6141385;28;84609;-59
2022/09/11 07:01:05;;;;;;;10.57;6.53;;;23.20;66.90;;;;;;6138913;28;82253;-58
2022/09/11 07:04:08;;;;;;;11.52;6.40;;;23.20;66.90;;;;;;6123601;28;82490;-59
2022/09/11 07:07:09;;;;;;;8.65;5.80;;;23.10;66.90;;;;;;6103997;28;81670;-59
2022/09/11 07:10:11;;;;;;;11.82;6.57;;;23.10;66.60;;;;;;6124703;28;83771;-59
2022/09/11 07:13:11;;;;;;;8.25;5.22;;;23.10;66.50;;;;;;6128877;28;81581;-60
2022/09/11 07:16:13;;;;;;;8.65;5.40;;;23.10;67.00;;;;;;6124549;28;82658;-60
2022/09/11 07:19:17;;;;;;;8.60;5.15;;;23.10;66.30;;;;;;6122248;28;80443;-60
2022/09/11 07:22:18;;;;;;;8.43;5.15;;;23.00;66.30;;;;;;6142010;28;83301;-61
2022/09/11 07:25:19;;;;;;;10.55;3.95;;;23.10;66.60;;;;;;6125555;28;87425;-61
2022/09/11 07:28:20;;;;;;;6.78;3.88;;;23.10;66.60;;;;;;6126251;28;80325;-61
2022/09/11 07:31:22;;;;;;;6.05;3.50;;;22.70;67.30;;;;;;6116567;28;82902;-57
2022/09/11 07:34:23;;;;;;;5.93;3.35;;;22.80;67.10;;;;;;6122778;28;82674;-57
2022/09/11 07:37:23;;;;;;;4.47;2.72;;;22.80;66.80;;;;;;6128520;28;82771;-58
2022/09/11 07:40:24;;;;;;;4.03;2.70;;;22.80;67.00;;;;;;6123438;28;83598;-57
2022/09/11 07:43:25;;;;;;;5.25;2.72;;;22.90;66.70;;;;;;6119101;28;82877;-60
2022/09/11 07:46:25;;;;;;;4.47;2.50;;;22.90;66.80;;;;;;6100887;28;82890;-59
2022/09/11 07:49:27;;;;;;;6.05;3.10;;;22.80;67.10;;;;;;6114429;28;83309;-60
2022/09/11 07:52:28;;;;;;;4.55;3.05;;;22.90;66.60;;;;;;6108051;28;85253;-60
2022/09/11 07:55:32;;;;;;;9.45;2.97;;;22.80;66.50;;;;;;6112626;28;83263;-60
2022/09/11 07:58:33;;;;;;;6.45;3.10;;;22.90;66.60;;;;;;6099689;28;84088;-59
2022/09/11 08:01:34;;;;;;;4.32;2.78;;;22.90;66.40;;;;;;6117257;28;86266;-59
2022/09/11 08:04:35;;;;;;;3.25;2.83;;;23.00;66.30;;;;;;6112378;28;85252;-60
2022/09/11 08:07:36;;;;;;;6.00;3.40;;;23.00;66.30;;;;;;6106897;28;80603;-58
2022/09/11 08:10:39;;;;;;;3.03;2.50;;;23.00;66.10;;;;;;6118661;28;83300;-60
2022/09/11 08:13:40;;;;;;;12.48;2.85;;;23.10;66.30;;;;;;6114884;28;81491;-60
2022/09/11 08:16:42;;;;;;;4.80;3.20;;;23.00;66.40;;;;;;6119808;28;81570;-58
2022/09/11 08:19:43;;;;;;;9.02;3.72;;;23.00;66.90;;;;;;6119201;28;80210;-59
2022/09/11 08:22:43;;;;;;;6.47;3.50;;;23.10;66.40;;;;;;6127133;28;83146;-60
2022/09/11 08:25:44;;;;;;;6.40;4.03;;;23.00;66.70;;;;;;6130258;28;82061;-57
2022/09/11 08:28:44;;;;;;;8.23;3.58;;;22.90;66.50;;;;;;6137686;28;83201;-56
2022/09/11 08:31:45;;;;;;;6.45;4.20;;;22.90;66.70;;;;;;6150358;28;83580;-58
2022/09/11 08:34:47;;;;;;;5.90;3.70;;;22.90;66.60;;;;;;6144374;28;82488;-56
2022/09/11 08:37:47;;;;;;;5.75;3.28;;;22.90;66.50;;;;;;6139967;28;81775;-57
2022/09/11 08:40:49;;;;;;;7.05;3.20;;;22.90;66.70;;;;;;6139963;28;87559;-58
2022/09/11 08:43:50;;;;;;;4.28;3.40;;;22.90;66.80;;;;;;6127174;28;80863;-65
2022/09/11 08:46:51;;;;;;;4.63;2.83;;;22.90;66.90;;;;;;6157236;28;81831;-65
2022/09/11 08:49:51;;;;;;;7.43;2.97;;;22.90;67.20;;;;;;6141107;28;80635;-67
2022/09/11 08:52:55;;;;;;;7.97;4.55;;;22.90;68.00;;;;;;6148630;28;85014;-66
2022/09/11 08:55:59;;;;;;;4.70;3.28;;;22.90;67.40;;;;;;6145328;28;85535;-67
2022/09/11 08:59:01;;;;;;;5.40;3.45;;;22.90;67.70;;;;;;6126626;28;80251;-70
2022/09/11 09:02:01;;;;;;;4.85;2.90;;;22.90;67.90;;;;;;6155191;28;81537;-61
2022/09/11 09:05:02;;;;;;;4.18;3.35;;;22.80;67.90;;;;;;6145952;28;83449;-61
2022/09/11 09:08:03;;;;;;;4.80;2.92;;;22.90;67.90;;;;;;6162997;28;83368;-62
2022/09/11 09:11:03;;;;;;;6.13;3.83;;;22.90;68.30;;;;;;6151810;28;80727;-61
2022/09/11 09:14:07;;;;;;;6.75;2.28;;;22.90;68.00;;;;;;6154264;28;81597;-62
2022/09/11 09:17:08;;;;;;;3.35;2.53;;;22.90;68.10;;;;;;6151603;28;81844;-62
2022/09/11 09:20:09;;;;;;;4.75;2.38;;;22.90;67.90;;;;;;6166368;28;81436;-60
2022/09/11 09:23:13;;;;;;;4.75;2.58;;;22.90;67.90;;;;;;6167597;28;83499;-61
2022/09/11 09:26:16;;;;;;;3.53;2.30;;;22.90;68.10;;;;;;6171793;28;83247;-59
2022/09/11 09:29:16;;;;;;;3.58;2.45;;;22.90;68.40;;;;;;6151460;28;81699;-61
2022/09/11 09:32:19;;;;;;;2.95;2.45;;;22.90;68.10;;;;;;6152321;28;81977;-60
2022/09/11 09:35:20;;;;;;;2.53;1.80;;;23.00;68.00;;;;;;6149986;28;82670;-61
2022/09/11 09:38:21;;;;;;;3.60;2.15;;;23.00;68.30;;;;;;6140646;28;81430;-61
2022/09/11 09:41:22;;;;;;;4.20;2.45;;;23.00;68.30;;;;;;6161360;28;86946;-61
2022/09/11 09:44:23;;;;;;;6.18;2.13;;;23.00;67.90;;;;;;6146106;28;83549;-61
2022/09/11 09:47:25;;;;;;;2.28;1.98;;;23.10;68.20;;;;;;6125517;28;84012;-61
2022/09/11 09:50:26;;;;;;;2.40;2.20;;;23.10;67.90;;;;;;6146632;28;81323;-61
2022/09/11 09:53:26;;;;;;;2.88;2.47;;;23.10;67.90;;;;;;6147097;28;80886;-62
2022/09/11 09:56:26;;;;;;;3.35;2.55;;;23.20;67.40;;;;;;6150372;28;81132;-62
2022/09/11 09:59:27;;;;;;;10.27;2.63;;;23.20;67.40;;;;;;6148305;28;81082;-62
2022/09/11 10:02:28;;;;;;;2.97;2.55;;;23.20;67.70;;;;;;6151573;28;83206;-61
2022/09/11 10:05:28;;;;;;;4.20;2.50;;;23.20;67.60;;;;;;6140005;28;80558;-62
2022/09/11 10:08:29;;;;;;;4.18;2.67;;;23.20;67.70;;;;;;6146342;28;82749;-62
2022/09/11 10:11:30;;;;;;;2.20;2.00;;;23.20;67.60;;;;;;6145698;28;80467;-60
2022/09/11 10:14:31;;;;;;;5.25;2.35;;;23.20;68.00;;;;;;6146863;28;80948;-60
2022/09/11 10:17:32;;;;;;;5.85;2.72;;;23.30;67.70;;;;;;6139348;28;81087;-60
2022/09/11 10:20:33;;;;;;;4.18;2.70;;;23.30;67.60;;;;;;6144677;28;80399;-61
2022/09/11 10:23:34;;;;;;;3.65;2.60;;;23.30;67.90;;;;;;6143560;28;81166;-62
2022/09/11 10:26:34;;;;;;;4.72;2.60;;;23.40;67.50;;;;;;6145750;28;80484;-59
2022/09/11 10:29:35;;;;;;;4.53;2.65;;;23.40;67.60;;;;;;6141814;28;81401;-64
2022/09/11 10:32:36;;;;;;;4.13;3.40;;;23.40;67.60;;;;;;6143542;28;82011;-62
2022/09/11 10:35:36;;;;;;;5.40;3.40;;;23.40;67.40;;;;;;6120172;28;82788;-62
2022/09/11 10:38:37;;;;;;;3.28;2.90;;;23.40;67.90;;;;;;6126583;28;81483;-65
2022/09/11 10:41:37;;;;;;;6.57;3.40;;;23.40;67.80;;;;;;6123846;28;80503;-64
2022/09/11 10:44:38;;;;;;;4.72;3.25;;;23.40;68.10;;;;;;6120116;28;81032;-63
2022/09/11 10:47:39;;;;;;;4.85;3.13;;;23.40;68.20;;;;;;6123849;28;81211;-62
2022/09/11 10:50:40;;;;;;;4.55;3.80;;;23.50;67.80;;;;;;6132776;28;81925;-62
2022/09/11 10:53:42;;;;;;;5.30;2.75;;;23.50;68.50;;;;;;6112169;28;81657;-61
2022/09/11 10:56:43;;;;;;;3.78;3.03;;;23.50;68.70;;;;;;6113275;28;80388;-59
2022/09/11 10:59:44;;;;;;;4.25;2.67;;;23.60;68.90;;;;;;6116286;28;81272;-61
2022/09/11 11:02:45;;;;;;;3.70;2.22;;;23.60;68.80;;;;;;6106379;28;83262;-60
2022/09/11 11:05:45;;;;;;;2.90;2.60;;;23.60;68.90;;;;;;6124212;28;83622;-61
2022/09/11 11:08:46;;;;;;;2.85;2.20;;;23.60;68.50;;;;;;6124705;28;81694;-59
2022/09/11 11:11:48;;;;;;;2.85;2.50;;;23.60;68.30;;;;;;6142315;28;80816;-60
2022/09/11 11:14:48;;;;;;;2.70;2.30;;;23.60;67.60;;;;;;6108486;28;80916;-63
2022/09/11 11:17:49;;;;;;;2.40;2.20;;;23.60;67.50;;;;;;6121360;28;80409;-63
2022/09/11 11:20:50;;;;;;;5.97;2.58;;;23.60;67.20;;;;;;6138420;28;80918;-60
2022/09/11 11:23:50;;;;;;;3.85;2.40;;;23.50;67.00;;;;;;6130388;28;84484;-63
2022/09/11 11:26:51;;;;;;;3.05;2.75;;;23.50;66.90;;;;;;6130104;28;81145;-62
2022/09/11 11:29:52;;;;;;;5.72;2.90;;;23.50;66.80;;;;;;6128214;28;80384;-61
2022/09/11 11:32:53;;;;;;;3.30;2.72;;;23.50;65.80;;;;;;6125542;28;81183;-62
2022/09/11 11:35:56;;;;;;;3.22;2.55;;;23.50;65.60;;;;;;6127801;28;80467;-60
2022/09/11 11:38:59;;;;;;;3.38;2.78;;;23.50;66.00;;;;;;6131029;28;80481;-63
2022/09/11 11:41:59;;;;;;;3.42;2.38;;;23.50;66.10;;;;;;6125066;28;80485;-63
2022/09/11 11:45:00;;;;;;;6.63;2.47;;;23.50;66.10;;;;;;6142064;28;81713;-65
2022/09/11 11:48:00;;;;;;;4.00;2.45;;;23.50;66.30;;;;;;6127392;28;80526;-74
2022/09/11 11:51:01;;;;;;;6.22;3.35;;;23.50;66.50;;;;;;6132054;28;80880;-67
2022/09/11 11:54:02;;;;;;;11.88;3.30;;;23.50;67.60;;;;;;6132337;28;80594;-66
2022/09/11 11:57:02;;;;;;;4.85;3.10;;;23.50;67.40;;;;;;6137009;28;80168;-65
2022/09/11 12:00:03;;;;;;;5.25;3.28;;;23.50;67.30;;;;;;6111150;28;80802;-65
2022/09/11 12:03:12;;;;;;;3.75;2.83;;;23.30;67.90;;;;;;6116782;28;83339;-65
2022/09/11 12:06:12;;;;;;;4.45;3.08;;;23.40;68.20;;;;;;6128583;28;82293;-56
2022/09/11 12:09:13;;;;;;;3.58;2.72;;;23.40;68.70;;;;;;6114339;28;80643;-55
2022/09/11 12:12:15;;;;;;;3.63;2.80;;;23.40;68.50;;;;;;6106208;28;80414;-59
2022/09/11 12:15:15;;;;;;;4.60;2.50;;;23.40;68.50;;;;;;6107538;28;83150;-59
2022/09/11 12:18:16;;;;;;;6.75;3.10;;;23.50;69.00;;;;;;6126924;28;83680;-56
2022/09/11 12:21:16;;;;;;;14.27;2.75;;;23.50;68.70;;;;;;6121810;28;80718;-56
2022/09/11 12:24:17;;;;;;;6.18;2.42;;;23.50;69.10;;;;;;6118676;28;80969;-53
2022/09/11 12:27:17;;;;;;;5.93;2.90;;;23.50;68.90;;;;;;6121598;28;80401;-53
2022/09/11 12:30:19;;;;;;;3.53;3.10;;;23.50;68.90;;;;;;6123952;28;80411;-53
2022/09/11 12:33:19;;;;;;;4.18;2.85;;;23.60;68.30;;;;;;6109451;28;80326;-55
2022/09/11 12:36:23;;;;;;;6.65;2.80;;;23.60;68.30;;;;;;6105223;28;80273;-58
2022/09/11 12:39:23;;;;;;;9.25;2.95;;;23.50;68.40;;;;;;6101859;28;80298;-56
2022/09/11 12:42:25;;;;;;;9.07;2.72;;;23.60;68.40;;;;;;6119683;28;85155;-63
2022/09/11 12:45:26;;;;;;;4.75;3.47;;;23.70;68.00;;;;;;6123729;28;80335;-62
2022/09/11 12:48:26;;;;;;;3.22;2.90;;;23.70;67.60;;;;;;6111194;28;86376;-62
2022/09/11 12:51:26;;;;;;;3.50;2.85;;;23.70;67.10;;;;;;6118540;28;82541;-56
2022/09/11 12:54:27;;;;;;;4.65;2.97;;;23.70;66.80;;;;;;6111096;28;82190;-61
2022/09/11 12:57:28;;;;;;;6.70;3.15;;;23.70;66.80;;;;;;6119033;28;89805;-64
2022/09/11 13:00:28;;;;;;;4.03;3.03;;;23.70;67.00;;;;;;6096620;28;85849;-61
2022/09/11 13:03:29;;;;;;;3.80;2.80;;;23.80;66.90;;;;;;6101204;28;80382;-63
2022/09/11 13:06:29;;;;;;;3.15;2.45;;;23.80;65.60;;;;;;6113295;28;83337;-64
2022/09/11 13:09:30;;;;;;;4.88;2.60;;;23.80;65.50;;;;;;6098461;28;80163;-63
2022/09/11 13:12:30;;;;;;;6.68;3.05;;;23.80;65.50;;;;;;6102969;28;81589;-61
2022/09/11 13:15:31;;;;;;;2.42;2.22;;;23.80;65.50;;;;;;6114222;28;82179;-64
2022/09/11 13:18:33;;;;;;;4.32;2.65;;;23.80;65.00;;;;;;6101725;28;80877;-64
2022/09/11 13:21:34;;;;;;;2.35;2.15;;;23.80;65.10;;;;;;6100012;28;80759;-64
2022/09/11 13:24:34;;;;;;;6.93;2.70;;;23.70;64.60;;;;;;6102130;28;80413;-64
2022/09/11 13:27:36;;;;;;;12.15;2.78;;;23.70;65.40;;;;;;6098347;28;80860;-63
2022/09/11 13:30:36;;;;;;;3.47;2.67;;;23.60;65.30;;;;;;6103474;28;81138;-62
2022/09/11 13:33:37;;;;;;;5.00;2.67;;;23.70;65.40;;;;;;6103517;28;80649;-63
2022/09/11 13:36:38;;;;;;;6.45;2.67;;;23.60;65.10;;;;;;6100301;28;80335;-65
2022/09/11 13:39:39;;;;;;;3.95;2.72;;;23.60;65.20;;;;;;6096726;28;80598;-63
2022/09/11 13:42:39;;;;;;;7.25;2.75;;;23.60;64.50;;;;;;6101820;28;83974;-63
2022/09/11 13:45:40;;;;;;;4.63;3.15;;;23.60;65.10;;;;;;6104168;28;80175;-62
2022/09/11 13:48:42;;;;;;;5.13;3.13;;;23.50;65.10;;;;;;6106760;28;82029;-65
2022/09/11 13:51:42;;;;;;;5.40;3.15;;;23.50;65.70;;;;;;6108881;28;87523;-64
2022/09/11 13:54:43;;;;;;;4.40;3.40;;;23.50;66.00;;;;;;6096013;28;81959;-63
2022/09/11 13:57:43;;;;;;;3.83;3.20;;;23.50;66.30;;;;;;6111269;28;80419;-62
2022/09/11 14:00:43;;;;;;;7.53;3.58;;;23.60;66.30;;;;;;6094253;28;80750;-62
2022/09/11 14:03:44;;;;;;;5.10;3.28;;;23.60;66.50;;;;;;6092075;28;80760;-63
2022/09/11 14:06:45;;;;;;;4.70;3.08;;;23.50;66.20;;;;;;6096798;28;80419;-59
2022/09/11 14:09:45;;;;;;;6.47;3.53;;;23.60;66.60;;;;;;6129581;28;80015;-62
2022/09/11 14:12:46;;;;;;;3.88;2.70;;;23.60;67.20;;;;;;6122472;28;80299;-61
2022/09/11 14:15:46;;;;;;;3.35;3.05;;;23.60;67.50;;;;;;6098623;28;80427;-61
2022/09/11 14:18:47;;;;;;;4.22;2.90;;;23.60;67.40;;;;;;6105342;28;81596;-58
2022/09/11 14:21:47;;;;;;;5.32;2.95;;;23.60;67.80;;;;;;6103974;28;81688;-59
2022/09/11 14:24:48;;;;;;;6.53;3.30;;;23.60;67.90;;;;;;6106719;28;80458;-60
2022/09/11 14:27:48;;;;;;;4.85;2.75;;;23.70;67.90;;;;;;6119810;28;80672;-60
2022/09/11 14:30:49;;;;;;;5.65;3.13;;;23.70;68.10;;;;;;6122490;28;80606;-60
2022/09/11 14:33:49;;;;;;;3.15;2.85;;;23.70;67.70;;;;;;6112279;28;83982;-70
2022/09/11 14:36:50;;;;;;;4.40;3.00;;;23.70;67.70;;;;;;6108024;28;80611;-70
2022/09/11 14:39:54;;;;;;;4.55;2.85;;;23.80;68.20;;;;;;6116490;28;80401;-64
2022/09/11 14:42:54;;;;;;;4.38;3.00;;;23.80;68.10;;;;;;6100748;28;80667;-69
2022/09/11 14:45:56;;;;;;;3.03;2.53;;;23.80;68.00;;;;;;6116791;28;81103;-63
2022/09/11 14:48:58;;;;;;;3.25;2.80;;;23.80;67.80;;;;;;6130578;28;83690;-65
2022/09/11 14:51:59;;;;;;;5.20;2.63;;;23.80;67.70;;;;;;6115654;28;80687;-67
2022/09/11 14:54:59;;;;;;;6.07;2.53;;;23.80;67.60;;;;;;6127070;28;80337;-60
2022/09/11 14:58:00;;;;;;;3.22;2.38;;;23.80;68.10;;;;;;6116190;28;85234;-66
2022/09/11 15:01:01;;;;;;;5.32;2.40;;;23.70;68.90;;;;;;6121971;28;82371;-65
2022/09/11 15:04:02;;;;;;;3.25;2.53;;;23.70;68.50;;;;;;6124291;28;80936;-65
2022/09/11 15:07:02;;;;;;;4.63;2.33;;;23.70;68.70;;;;;;6121200;28;82044;-65
2022/09/11 15:10:03;;;;;;;2.97;2.30;;;23.60;69.40;;;;;;6115360;28;83427;-62
2022/09/11 15:13:04;;;;;;;3.95;2.33;;;23.60;69.30;;;;;;6110307;28;80899;-62
2022/09/11 15:16:05;;;;;;;7.05;2.25;;;23.50;68.70;;;;;;6160693;28;86904;-60
2022/09/11 15:19:05;;;;;;;4.43;2.03;;;23.50;68.80;;;;;;6142292;28;80065;-62
2022/09/11 15:22:06;;;;;;;3.13;1.85;;;23.40;67.90;;;;;;6151470;28;80746;-62
2022/09/11 15:25:06;;;;;;;3.53;2.17;;;23.40;68.40;;;;;;6141474;28;80326;-59
2022/09/11 15:28:09;;;;;;;1.70;1.60;;;23.40;69.10;;;;;;6137871;28;82834;-66
2022/09/11 15:31:11;;;;;;;4.15;1.92;;;23.40;69.80;;;;;;6124960;28;80271;-68
2022/09/11 15:34:11;;;;;;;2.53;1.90;;;23.30;69.10;;;;;;6123776;28;80645;-66
2022/09/11 15:37:12;;;;;;;7.40;2.25;;;23.30;69.50;;;;;;6135900;28;80824;-62
2022/09/11 15:40:12;;;;;;;28.45;2.40;;;23.20;70.00;;;;;;6114931;28;80468;-75